createdAt,value
2017-07-12T00:00:07.278Z,0
2017-07-12T00:01:07.623Z,0
2017-07-12T00:02:07.151Z,0
2017-07-12T00:03:07.352Z,0
2017-07-12T00:04:08.038Z,0
2017-07-12T00:05:07.417Z,0
2017-07-12T00:06:07.582Z,0
2017-07-12T00:07:07.147Z,0
2017-07-12T00:08:07.941Z,0
2017-07-12T00:09:07.194Z,0
2017-07-12T00:10:07.878Z,0
2017-07-12T00:11:07.801Z,0
2017-07-12T00:12:08.237Z,0
2017-07-12T00:13:07.936Z,0
2017-07-12T00:14:08.134Z,0
2017-07-12T00:15:07.996Z,0
2017-07-12T00:16:08.074Z,0
2017-07-12T00:17:07.711Z,0
2017-07-12T00:18:07.434Z,0
2017-07-12T00:19:08.102Z,0
2017-07-12T00:20:08.220Z,0
2017-07-12T00:21:08.143Z,0
2017-07-12T00:22:07.868Z,0
2017-07-12T00:23:07.860Z,0
2017-07-12T00:24:08.216Z,0
2017-07-12T00:25:08.049Z,0
2017-07-12T00:26:07.946Z,0
2017-07-12T00:27:08.618Z,0
2017-07-12T00:28:08.332Z,0
2017-07-12T00:29:07.690Z,0
2017-07-12T00:30:08.048Z,0
2017-07-12T00:31:08.065Z,0
2017-07-12T00:32:08.431Z,0
2017-07-12T00:33:08.234Z,0
2017-07-12T00:34:08.790Z,0
2017-07-12T00:35:07.841Z,0
2017-07-12T00:36:08.629Z,0
2017-07-12T00:37:08.601Z,0
2017-07-12T00:38:07.938Z,0
2017-07-12T00:39:08.593Z,0
2017-07-12T00:40:08.625Z,0
2017-07-12T00:41:07.997Z,0
2017-07-12T00:42:08.397Z,0
2017-07-12T00:43:08.381Z,0
2017-07-12T00:44:08.397Z,0
2017-07-12T00:45:08.742Z,0
2017-07-12T00:46:08.762Z,0
2017-07-12T00:47:08.463Z,0
2017-07-12T00:48:08.816Z,0
2017-07-12T00:49:08.843Z,0
2017-07-12T00:50:08.865Z,0
2017-07-12T00:51:08.570Z,0
2017-07-12T00:52:08.598Z,0
2017-07-12T00:53:07.966Z,0
2017-07-12T00:54:08.963Z,0
2017-07-12T00:55:08.999Z,0
2017-07-12T00:56:09.011Z,0
2017-07-12T00:57:09.353Z,0
2017-07-12T00:58:09.062Z,0
2017-07-12T00:59:09.097Z,0
2017-07-12T01:00:08.794Z,0
2017-07-12T01:01:08.817Z,0
2017-07-12T01:02:08.271Z,0
2017-07-12T01:03:08.873Z,0
2017-07-12T01:04:08.887Z,0
2017-07-12T01:05:08.915Z,0
2017-07-12T01:06:09.257Z,0
2017-07-12T01:07:08.636Z,0
2017-07-12T01:08:09.631Z,0
2017-07-12T01:09:08.686Z,0
2017-07-12T01:10:09.680Z,0
2017-07-12T01:11:09.388Z,0
2017-07-12T01:12:08.435Z,0
2017-07-12T01:13:09.817Z,0
2017-07-12T01:14:09.783Z,0
2017-07-12T01:15:09.801Z,0
2017-07-12T01:16:09.497Z,0
2017-07-12T01:17:09.859Z,0
2017-07-12T01:18:09.565Z,0
2017-07-12T01:19:09.702Z,0
2017-07-12T01:20:09.603Z,0
2017-07-12T01:21:09.947Z,0
2017-07-12T01:22:09.316Z,0
2017-07-12T01:23:09.677Z,0
2017-07-12T01:24:09.462Z,0
2017-07-12T01:25:09.795Z,0
2017-07-12T01:26:10.070Z,0
2017-07-12T01:27:09.121Z,0
2017-07-12T01:28:09.149Z,0
2017-07-12T01:29:08.848Z,0
2017-07-12T01:30:10.186Z,0
2017-07-12T01:31:09.799Z,0
2017-07-12T01:32:09.589Z,0
2017-07-12T01:33:09.593Z,0
2017-07-12T01:34:10.046Z,0
2017-07-12T01:35:10.397Z,0
2017-07-12T01:36:10.186Z,0
2017-07-12T01:37:10.265Z,0
2017-07-12T01:38:09.718Z,0
2017-07-12T01:39:09.428Z,0
2017-07-12T01:40:09.773Z,0
2017-07-12T01:41:10.117Z,0
2017-07-12T01:42:10.565Z,0
2017-07-12T01:43:10.449Z,0
2017-07-12T01:44:10.209Z,0
2017-07-12T01:45:09.888Z,0
2017-07-12T01:46:10.257Z,0
2017-07-12T01:47:10.250Z,0
2017-07-12T01:48:10.345Z,0
2017-07-12T01:49:10.313Z,0
2017-07-12T01:50:10.339Z,0
2017-07-12T01:51:10.032Z,0
2017-07-12T01:52:10.063Z,0
2017-07-12T01:53:09.451Z,0
2017-07-12T01:54:10.425Z,0
2017-07-12T01:55:10.122Z,0
2017-07-12T01:56:10.161Z,0
2017-07-12T01:57:10.820Z,0
2017-07-12T01:58:09.875Z,0
2017-07-12T01:59:10.558Z,0
2017-07-12T02:00:10.569Z,0
2017-07-12T02:01:10.921Z,0
2017-07-12T02:02:10.639Z,0
2017-07-12T02:03:10.325Z,0
2017-07-12T02:04:10.345Z,0
2017-07-12T02:05:11.046Z,0
2017-07-12T02:06:10.748Z,0
2017-07-12T02:07:10.526Z,0
2017-07-12T02:08:10.458Z,0
2017-07-12T02:09:10.659Z,0
2017-07-12T02:10:10.711Z,0
2017-07-12T02:11:10.517Z,0
2017-07-12T02:12:10.861Z,0
2017-07-12T02:13:10.887Z,0
2017-07-12T02:14:10.603Z,0
2017-07-12T02:15:10.931Z,0
2017-07-12T02:16:10.962Z,0
2017-07-12T02:17:10.977Z,0
2017-07-12T02:18:11.386Z,0
2017-07-12T02:19:10.056Z,0
2017-07-12T02:20:10.728Z,0
2017-07-12T02:21:10.748Z,0
2017-07-12T02:22:10.774Z,0
2017-07-12T02:23:10.818Z,0
2017-07-12T02:24:11.442Z,0
2017-07-12T02:25:10.971Z,0
2017-07-12T02:26:10.872Z,0
2017-07-12T02:27:11.662Z,0
2017-07-12T02:28:10.644Z,0
2017-07-12T02:29:11.263Z,0
2017-07-12T02:30:10.638Z,0
2017-07-12T02:31:11.107Z,0
2017-07-12T02:32:11.442Z,0
2017-07-12T02:33:11.034Z,0
2017-07-12T02:34:11.382Z,0
2017-07-12T02:35:11.415Z,0
2017-07-12T02:36:10.788Z,0
2017-07-12T02:37:10.814Z,0
2017-07-12T02:38:10.508Z,0
2017-07-12T02:39:11.823Z,0
2017-07-12T02:40:11.838Z,0
2017-07-12T02:41:11.879Z,0
2017-07-12T02:42:11.247Z,0
2017-07-12T02:43:11.602Z,0
2017-07-12T02:44:11.948Z,0
2017-07-12T02:45:11.970Z,0
2017-07-12T02:46:11.687Z,0
2017-07-12T02:47:11.042Z,0
2017-07-12T02:48:11.711Z,0
2017-07-12T02:49:11.091Z,0
2017-07-12T02:50:11.765Z,0
2017-07-12T02:51:11.783Z,0
2017-07-12T02:52:11.493Z,0
2017-07-12T02:53:11.518Z,0
2017-07-12T02:54:12.184Z,0
2017-07-12T02:55:11.555Z,0
2017-07-12T02:56:11.700Z,0
2017-07-12T02:57:11.081Z,0
2017-07-12T02:58:11.970Z,0
2017-07-12T02:59:11.658Z,0
2017-07-12T03:00:11.678Z,0
2017-07-12T03:01:12.350Z,0
2017-07-12T03:02:12.211Z,0
2017-07-12T03:03:11.746Z,0
2017-07-12T03:04:11.831Z,0
2017-07-12T03:05:12.241Z,0
2017-07-12T03:06:11.949Z,0
2017-07-12T03:07:12.761Z,0
2017-07-12T03:08:11.989Z,0
2017-07-12T03:09:11.252Z,0
2017-07-12T03:10:12.256Z,0
2017-07-12T03:11:12.579Z,0
2017-07-12T03:12:12.626Z,0
2017-07-12T03:13:11.658Z,0
2017-07-12T03:14:12.879Z,0
2017-07-12T03:15:12.483Z,0
2017-07-12T03:16:12.057Z,0
2017-07-12T03:17:12.414Z,0
2017-07-12T03:18:12.106Z,0
2017-07-12T03:19:12.459Z,0
2017-07-12T03:20:12.468Z,0
2017-07-12T03:21:12.299Z,0
2017-07-12T03:22:11.866Z,0
2017-07-12T03:23:12.538Z,0
2017-07-12T03:24:12.244Z,0
2017-07-12T03:25:11.992Z,0
2017-07-12T03:26:12.631Z,0
2017-07-12T03:27:12.431Z,0
2017-07-12T03:28:12.342Z,0
2017-07-12T03:29:12.682Z,0
2017-07-12T03:30:13.097Z,0
2017-07-12T03:31:13.122Z,0
2017-07-12T03:32:13.075Z,0
2017-07-12T03:33:12.451Z,0
2017-07-12T03:34:12.799Z,0
2017-07-12T03:35:12.966Z,0
2017-07-12T03:36:12.525Z,0
2017-07-12T03:37:12.688Z,0
2017-07-12T03:38:12.574Z,0
2017-07-12T03:39:12.421Z,0
2017-07-12T03:40:12.699Z,0
2017-07-12T03:41:13.032Z,0
2017-07-12T03:42:12.358Z,0
2017-07-12T03:43:12.682Z,0
2017-07-12T03:44:13.037Z,0
2017-07-12T03:45:12.834Z,0
2017-07-12T03:46:12.448Z,0
2017-07-12T03:47:13.108Z,0
2017-07-12T03:48:12.810Z,0
2017-07-12T03:49:12.595Z,0
2017-07-12T03:50:13.327Z,0
2017-07-12T03:51:13.327Z,0
2017-07-12T03:52:12.582Z,0
2017-07-12T03:53:13.244Z,0
2017-07-12T03:54:12.947Z,0
2017-07-12T03:55:12.976Z,0
2017-07-12T03:56:13.313Z,0
2017-07-12T03:57:13.787Z,0
2017-07-12T03:58:13.686Z,0
2017-07-12T03:59:12.838Z,0
2017-07-12T04:00:13.094Z,0
2017-07-12T04:01:13.435Z,0
2017-07-12T04:02:13.129Z,0
2017-07-12T04:03:13.491Z,0
2017-07-12T04:04:13.186Z,0
2017-07-12T04:05:13.532Z,0
2017-07-12T04:06:13.555Z,0
2017-07-12T04:07:13.910Z,0
2017-07-12T04:08:13.089Z,0
2017-07-12T04:09:13.628Z,0
2017-07-12T04:10:13.650Z,0
2017-07-12T04:11:13.790Z,0
2017-07-12T04:12:13.045Z,0
2017-07-12T04:13:14.143Z,0
2017-07-12T04:14:13.096Z,0
2017-07-12T04:15:13.436Z,0
2017-07-12T04:16:13.796Z,0
2017-07-12T04:17:14.133Z,0
2017-07-12T04:18:13.177Z,0
2017-07-12T04:19:13.204Z,0
2017-07-12T04:20:14.212Z,0
2017-07-12T04:21:14.221Z,0
2017-07-12T04:22:13.598Z,0
2017-07-12T04:23:14.067Z,0
2017-07-12T04:24:13.968Z,0
2017-07-12T04:25:13.670Z,0
2017-07-12T04:26:14.019Z,0
2017-07-12T04:27:14.372Z,0
2017-07-12T04:28:14.074Z,0
2017-07-12T04:29:13.765Z,0
2017-07-12T04:30:14.430Z,0
2017-07-12T04:31:14.592Z,0
2017-07-12T04:32:14.277Z,0
2017-07-12T04:33:14.515Z,5
2017-07-12T04:34:13.880Z,5
2017-07-12T04:35:13.705Z,5
2017-07-12T04:36:13.928Z,5
2017-07-12T04:37:14.264Z,5
2017-07-12T04:38:14.622Z,5
2017-07-12T04:39:14.640Z,5
2017-07-12T04:40:14.357Z,5
2017-07-12T04:41:14.583Z,5
2017-07-12T04:42:14.406Z,5
2017-07-12T04:43:14.419Z,10
2017-07-12T04:44:14.441Z,5
2017-07-12T04:45:14.662Z,5
2017-07-12T04:46:14.163Z,10
2017-07-12T04:47:14.501Z,10
2017-07-12T04:48:14.532Z,10
2017-07-12T04:49:14.250Z,15
2017-07-12T04:50:13.994Z,15
2017-07-12T04:51:14.714Z,15
2017-07-12T04:52:14.299Z,10
2017-07-12T04:53:14.979Z,10
2017-07-12T04:54:14.671Z,10
2017-07-12T04:55:14.371Z,10
2017-07-12T04:56:14.490Z,10
2017-07-12T04:57:14.739Z,10
2017-07-12T04:58:14.444Z,10
2017-07-12T04:59:14.786Z,10
2017-07-12T05:00:15.139Z,10
2017-07-12T05:01:14.506Z,10
2017-07-12T05:02:14.527Z,10
2017-07-12T05:03:14.675Z,10
2017-07-12T05:04:14.402Z,10
2017-07-12T05:05:14.599Z,10
2017-07-12T05:06:14.977Z,10
2017-07-12T05:07:14.977Z,10
2017-07-12T05:08:15.000Z,10
2017-07-12T05:09:15.121Z,10
2017-07-12T05:10:14.729Z,10
2017-07-12T05:11:15.077Z,15
2017-07-12T05:12:14.893Z,15
2017-07-12T05:13:15.112Z,10
2017-07-12T05:14:15.526Z,10
2017-07-12T05:15:15.486Z,10
2017-07-12T05:16:15.509Z,10
2017-07-12T05:17:15.528Z,10
2017-07-12T05:18:15.244Z,15
2017-07-12T05:19:14.608Z,15
2017-07-12T05:20:15.291Z,15
2017-07-12T05:21:15.634Z,15
2017-07-12T05:22:15.737Z,15
2017-07-12T05:23:14.707Z,15
2017-07-12T05:24:15.377Z,15
2017-07-12T05:25:15.405Z,15
2017-07-12T05:26:15.101Z,15
2017-07-12T05:27:15.769Z,15
2017-07-12T05:28:14.825Z,15
2017-07-12T05:29:15.492Z,15
2017-07-12T05:30:15.530Z,15
2017-07-12T05:31:15.866Z,15
2017-07-12T05:32:15.462Z,15
2017-07-12T05:33:15.596Z,15
2017-07-12T05:34:15.289Z,15
2017-07-12T05:35:15.962Z,15
2017-07-12T05:36:15.658Z,15
2017-07-12T05:37:15.792Z,15
2017-07-12T05:38:15.381Z,15
2017-07-12T05:39:15.401Z,15
2017-07-12T05:40:15.751Z,15
2017-07-12T05:41:15.447Z,15
2017-07-12T05:42:15.153Z,15
2017-07-12T05:43:15.498Z,15
2017-07-12T05:44:15.844Z,15
2017-07-12T05:45:15.546Z,15
2017-07-12T05:46:15.250Z,15
2017-07-12T05:47:15.719Z,15
2017-07-12T05:48:16.396Z,15
2017-07-12T05:49:16.166Z,20
2017-07-12T05:50:15.787Z,20
2017-07-12T05:51:16.014Z,20
2017-07-12T05:52:16.167Z,20
2017-07-12T05:53:16.156Z,20
2017-07-12T05:54:15.443Z,20
2017-07-12T05:55:15.912Z,20
2017-07-12T05:56:16.226Z,20
2017-07-12T05:57:16.486Z,20
2017-07-12T05:58:16.510Z,20
2017-07-12T05:59:16.057Z,15
2017-07-12T06:00:16.373Z,15
2017-07-12T06:01:16.590Z,15
2017-07-12T06:02:15.867Z,15
2017-07-12T06:03:15.993Z,15
2017-07-12T06:04:16.321Z,15
2017-07-12T06:05:16.037Z,15
2017-07-12T06:06:16.370Z,15
2017-07-12T06:07:16.443Z,20
2017-07-12T06:08:16.428Z,20
2017-07-12T06:09:15.793Z,20
2017-07-12T06:10:16.142Z,20
2017-07-12T06:11:16.489Z,20
2017-07-12T06:12:16.198Z,20
2017-07-12T06:13:16.538Z,20
2017-07-12T06:14:16.235Z,20
2017-07-12T06:15:15.943Z,20
2017-07-12T06:16:16.614Z,20
2017-07-12T06:17:16.987Z,20
2017-07-12T06:18:16.382Z,20
2017-07-12T06:19:16.820Z,20
2017-07-12T06:20:16.066Z,25
2017-07-12T06:21:16.414Z,25
2017-07-12T06:22:16.428Z,25
2017-07-12T06:23:16.129Z,25
2017-07-12T06:24:17.122Z,25
2017-07-12T06:25:16.936Z,25
2017-07-12T06:26:16.933Z,25
2017-07-12T06:27:17.186Z,25
2017-07-12T06:28:17.224Z,25
2017-07-12T06:29:16.603Z,20
2017-07-12T06:30:16.956Z,20
2017-07-12T06:31:16.644Z,20
2017-07-12T06:32:16.738Z,20
2017-07-12T06:33:16.698Z,25
2017-07-12T06:34:16.723Z,25
2017-07-12T06:35:16.862Z,25
2017-07-12T06:36:16.789Z,25
2017-07-12T06:37:17.249Z,25
2017-07-12T06:38:16.905Z,25
2017-07-12T06:39:16.520Z,25
2017-07-12T06:40:16.542Z,25
2017-07-12T06:41:16.894Z,25
2017-07-12T06:42:17.250Z,25
2017-07-12T06:43:17.279Z,30
2017-07-12T06:44:17.296Z,30
2017-07-12T06:45:17.360Z,30
2017-07-12T06:46:17.016Z,25
2017-07-12T06:47:17.688Z,25
2017-07-12T06:48:17.402Z,25
2017-07-12T06:49:17.090Z,25
2017-07-12T06:50:17.107Z,25
2017-07-12T06:51:17.583Z,30
2017-07-12T06:52:17.647Z,30
2017-07-12T06:53:17.306Z,30
2017-07-12T06:54:18.062Z,25
2017-07-12T06:55:17.035Z,25
2017-07-12T06:56:17.354Z,25
2017-07-12T06:57:17.286Z,25
2017-07-12T06:58:17.377Z,25
2017-07-12T06:59:17.661Z,25
2017-07-12T07:00:17.685Z,25
2017-07-12T07:01:17.718Z,25
2017-07-12T07:02:18.065Z,30
2017-07-12T07:03:17.771Z,30
2017-07-12T07:04:17.469Z,35
2017-07-12T07:05:18.126Z,35
2017-07-12T07:06:17.181Z,35
2017-07-12T07:07:17.885Z,35
2017-07-12T07:08:17.592Z,30
2017-07-12T07:09:17.695Z,30
2017-07-12T07:10:17.286Z,25
2017-07-12T07:11:17.959Z,25
2017-07-12T07:12:18.306Z,20
2017-07-12T07:13:18.002Z,25
2017-07-12T07:14:17.728Z,25
2017-07-12T07:15:18.152Z,25
2017-07-12T07:16:18.085Z,30
2017-07-12T07:17:18.109Z,30
2017-07-12T07:18:17.814Z,30
2017-07-12T07:19:17.956Z,30
2017-07-12T07:20:18.268Z,30
2017-07-12T07:21:18.200Z,30
2017-07-12T07:22:17.380Z,30
2017-07-12T07:23:17.280Z,30
2017-07-12T07:24:17.959Z,30
2017-07-12T07:25:18.386Z,30
2017-07-12T07:26:18.336Z,30
2017-07-12T07:27:18.085Z,35
2017-07-12T07:28:18.059Z,35
2017-07-12T07:29:18.419Z,40
2017-07-12T07:30:18.879Z,40
2017-07-12T07:31:18.137Z,35
2017-07-12T07:32:18.479Z,35
2017-07-12T07:33:18.507Z,35
2017-07-12T07:34:18.542Z,35
2017-07-12T07:35:18.754Z,30
2017-07-12T07:36:18.743Z,30
2017-07-12T07:37:18.573Z,30
2017-07-12T07:38:18.816Z,30
2017-07-12T07:39:18.780Z,30
2017-07-12T07:40:19.098Z,30
2017-07-12T07:41:18.902Z,30
2017-07-12T07:42:18.756Z,30
2017-07-12T07:43:18.765Z,35
2017-07-12T07:44:18.790Z,35
2017-07-12T07:45:19.127Z,35
2017-07-12T07:46:18.831Z,35
2017-07-12T07:47:18.541Z,40
2017-07-12T07:48:19.210Z,45
2017-07-12T07:49:18.587Z,45
2017-07-12T07:50:18.286Z,45
2017-07-12T07:51:18.959Z,45
2017-07-12T07:52:19.307Z,45
2017-07-12T07:53:18.692Z,40
2017-07-12T07:54:19.045Z,40
2017-07-12T07:55:19.064Z,40
2017-07-12T07:56:19.423Z,40
2017-07-12T07:57:19.128Z,35
2017-07-12T07:58:19.466Z,35
2017-07-12T07:59:19.175Z,35
2017-07-12T08:00:19.508Z,35
2017-07-12T08:01:19.221Z,35
2017-07-12T08:02:19.245Z,35
2017-07-12T08:03:19.271Z,35
2017-07-12T08:04:18.977Z,35
2017-07-12T08:05:18.997Z,40
2017-07-12T08:06:19.361Z,40
2017-07-12T08:07:19.375Z,40
2017-07-12T08:08:19.401Z,40
2017-07-12T08:09:19.424Z,40
2017-07-12T08:10:19.448Z,40
2017-07-12T08:11:18.832Z,35
2017-07-12T08:12:18.858Z,35
2017-07-12T08:13:19.223Z,35
2017-07-12T08:14:19.890Z,35
2017-07-12T08:15:18.942Z,30
2017-07-12T08:16:19.280Z,30
2017-07-12T08:17:19.635Z,30
2017-07-12T08:18:20.083Z,35
2017-07-12T08:19:19.362Z,30
2017-07-12T08:20:19.389Z,30
2017-07-12T08:21:19.412Z,30
2017-07-12T08:22:19.436Z,30
2017-07-12T08:23:19.160Z,30
2017-07-12T08:24:19.835Z,30
2017-07-12T08:25:19.527Z,35
2017-07-12T08:26:19.866Z,40
2017-07-12T08:27:19.814Z,40
2017-07-12T08:28:20.014Z,35
2017-07-12T08:29:20.261Z,35
2017-07-12T08:30:20.298Z,35
2017-07-12T08:31:20.117Z,40
2017-07-12T08:32:19.856Z,40
2017-07-12T08:33:19.855Z,35
2017-07-12T08:34:20.396Z,35
2017-07-12T08:35:19.871Z,35
2017-07-12T08:36:20.209Z,30
2017-07-12T08:37:19.601Z,30
2017-07-12T08:38:20.172Z,30
2017-07-12T08:39:20.070Z,30
2017-07-12T08:40:20.293Z,30
2017-07-12T08:41:20.268Z,30
2017-07-12T08:42:20.300Z,35
2017-07-12T08:43:20.318Z,35
2017-07-12T08:44:20.343Z,35
2017-07-12T08:45:20.178Z,40
2017-07-12T08:46:20.720Z,40
2017-07-12T08:47:19.857Z,40
2017-07-12T08:48:20.453Z,35
2017-07-12T08:49:20.214Z,35
2017-07-12T08:50:20.818Z,30
2017-07-12T08:51:20.533Z,30
2017-07-12T08:52:20.883Z,30
2017-07-12T08:53:20.375Z,35
2017-07-12T08:54:19.730Z,35
2017-07-12T08:55:20.306Z,35
2017-07-12T08:56:20.334Z,35
2017-07-12T08:57:20.706Z,30
2017-07-12T08:58:20.810Z,30
2017-07-12T08:59:22.142Z,30
2017-07-12T09:00:20.160Z,25
2017-07-12T09:01:20.969Z,25
2017-07-12T09:02:21.006Z,30
2017-07-12T09:03:20.963Z,30
2017-07-12T09:04:20.641Z,25
2017-07-12T09:05:20.668Z,30
2017-07-12T09:06:21.163Z,30
2017-07-12T09:07:21.286Z,30
2017-07-12T09:08:20.693Z,30
2017-07-12T09:09:21.013Z,30
2017-07-12T09:10:20.803Z,25
2017-07-12T09:11:20.860Z,20
2017-07-12T09:12:21.082Z,20
2017-07-12T09:13:20.648Z,20
2017-07-12T09:14:20.973Z,15
2017-07-12T09:15:21.376Z,15
2017-07-12T09:16:21.201Z,15
2017-07-12T09:17:21.601Z,15
2017-07-12T09:18:21.478Z,10
2017-07-12T09:19:20.667Z,10
2017-07-12T09:20:21.301Z,10
2017-07-12T09:21:21.648Z,5
2017-07-12T09:22:20.380Z,10
2017-07-12T09:23:20.728Z,10
2017-07-12T09:33:21.341Z,15
2017-07-12T09:34:21.771Z,15
2017-07-12T09:35:21.910Z,15
2017-07-12T09:36:21.282Z,15
2017-07-12T09:37:21.548Z,20
2017-07-12T09:38:21.548Z,25
2017-07-12T09:39:21.924Z,25
2017-07-12T09:40:21.637Z,25
2017-07-12T09:41:21.971Z,25
2017-07-12T09:42:21.961Z,25
2017-07-12T09:43:21.609Z,20
2017-07-12T09:44:21.617Z,15
2017-07-12T09:45:21.723Z,10
2017-07-12T09:46:21.987Z,10
2017-07-12T09:47:22.022Z,10
2017-07-12T09:48:21.894Z,10
2017-07-12T09:49:22.202Z,10
2017-07-12T09:50:21.633Z,15
2017-07-12T09:51:21.897Z,15
2017-07-12T09:52:22.652Z,15
2017-07-12T09:53:22.353Z,15
2017-07-12T09:54:22.377Z,15
2017-07-12T09:55:22.677Z,15
2017-07-12T09:56:22.000Z,10
2017-07-12T09:57:21.967Z,10
2017-07-12T09:58:21.665Z,10
2017-07-12T09:59:22.337Z,10
2017-07-12T10:00:22.035Z,10
2017-07-12T10:01:22.389Z,10
2017-07-12T10:02:22.850Z,10
2017-07-12T10:03:22.222Z,15
2017-07-12T10:04:21.900Z,15
2017-07-12T10:05:22.546Z,15
2017-07-12T10:06:21.875Z,15
2017-07-12T10:07:22.228Z,15
2017-07-12T10:08:23.013Z,15
2017-07-12T10:09:22.283Z,15
2017-07-12T10:10:22.391Z,15
2017-07-12T10:11:22.021Z,15
2017-07-12T10:12:22.035Z,15
2017-07-12T10:13:22.826Z,10
2017-07-12T10:14:22.408Z,10
2017-07-12T10:15:22.761Z,15
2017-07-12T10:16:22.586Z,15
2017-07-12T10:17:22.999Z,15
2017-07-12T10:18:22.301Z,15
2017-07-12T10:19:22.546Z,10
2017-07-12T10:20:23.345Z,10
2017-07-12T10:21:22.597Z,10
2017-07-12T10:22:23.108Z,10
2017-07-12T10:23:22.319Z,10
2017-07-12T10:24:23.008Z,15
2017-07-12T10:25:23.032Z,15
2017-07-12T10:26:23.065Z,15
2017-07-12T10:27:23.409Z,20
2017-07-12T10:28:23.042Z,20
2017-07-12T10:29:22.930Z,20
2017-07-12T10:30:23.157Z,20
2017-07-12T10:31:22.865Z,20
2017-07-12T10:32:22.651Z,25
2017-07-12T10:33:23.277Z,25
2017-07-12T10:34:23.394Z,25
2017-07-12T10:35:23.088Z,25
2017-07-12T10:36:23.098Z,25
2017-07-12T10:37:23.090Z,25
2017-07-12T10:38:23.402Z,30
2017-07-12T10:39:23.400Z,30
2017-07-12T10:40:23.161Z,30
2017-07-12T10:41:23.445Z,25
2017-07-12T10:42:23.158Z,25
2017-07-12T10:43:23.833Z,25
2017-07-12T10:44:23.210Z,25
2017-07-12T10:45:23.553Z,25
2017-07-12T10:46:23.915Z,25
2017-07-12T10:47:23.281Z,20
2017-07-12T10:48:23.424Z,20
2017-07-12T10:49:23.737Z,15
2017-07-12T10:50:23.558Z,15
2017-07-12T10:51:23.423Z,15
2017-07-12T10:52:24.090Z,15
2017-07-12T10:53:24.091Z,10
2017-07-12T10:54:23.919Z,10
2017-07-12T10:55:23.168Z,10
2017-07-12T10:56:23.840Z,10
2017-07-12T10:57:23.554Z,10
2017-07-12T10:58:24.017Z,10
2017-07-12T10:59:24.257Z,10
2017-07-12T11:00:23.771Z,15
2017-07-12T11:01:23.881Z,15
2017-07-12T11:02:24.061Z,10
2017-07-12T11:03:23.833Z,10
2017-07-12T11:04:24.089Z,10
2017-07-12T11:05:24.086Z,5
2017-07-12T11:06:24.105Z,5
2017-07-12T11:07:23.805Z,10
2017-07-12T11:08:23.835Z,10
2017-07-12T11:09:24.199Z,15
2017-07-12T11:10:23.897Z,15
2017-07-12T11:11:23.924Z,15
2017-07-12T11:12:23.937Z,20
2017-07-12T11:13:23.961Z,20
2017-07-12T11:14:23.995Z,15
2017-07-12T11:15:24.672Z,15
2017-07-12T11:16:24.053Z,20
2017-07-12T11:17:24.841Z,20
2017-07-12T11:18:24.909Z,20
2017-07-12T11:19:23.477Z,10
2017-07-12T11:20:24.281Z,15
2017-07-12T11:21:23.626Z,20
2017-07-12T11:22:24.525Z,20
2017-07-12T11:23:24.572Z,20
2017-07-12T11:24:24.365Z,25
2017-07-12T11:25:24.598Z,20
2017-07-12T11:26:24.640Z,25
2017-07-12T11:27:24.457Z,20
2017-07-12T11:28:24.362Z,20
2017-07-12T11:29:24.245Z,20
2017-07-12T11:30:24.415Z,15
2017-07-12T11:31:25.091Z,15
2017-07-12T11:32:24.459Z,15
2017-07-12T11:33:24.490Z,10
2017-07-12T11:34:25.164Z,10
2017-07-12T11:35:24.964Z,10
2017-07-12T11:36:24.571Z,15
2017-07-12T11:37:24.596Z,20
2017-07-12T11:38:25.267Z,20
2017-07-12T11:39:24.969Z,15
2017-07-12T11:40:24.807Z,15
2017-07-12T11:41:24.812Z,15
2017-07-12T11:42:25.050Z,15
2017-07-12T11:43:24.762Z,15
2017-07-12T11:44:25.428Z,15
2017-07-12T11:45:25.458Z,15
2017-07-12T11:46:25.023Z,10
2017-07-12T11:47:25.185Z,10
2017-07-12T11:48:24.883Z,10
2017-07-12T11:49:25.558Z,10
2017-07-12T11:50:24.613Z,10
2017-07-12T11:51:25.077Z,10
2017-07-12T11:52:25.351Z,10
2017-07-12T11:53:25.350Z,10
2017-07-12T11:54:25.041Z,10
2017-07-12T11:55:25.392Z,10
2017-07-12T11:56:25.740Z,10
2017-07-12T11:57:25.230Z,10
2017-07-12T11:58:25.189Z,10
2017-07-12T11:59:25.171Z,10
2017-07-12T12:00:25.314Z,10
2017-07-12T12:01:25.219Z,10
2017-07-12T12:02:25.905Z,10
2017-07-12T12:03:25.271Z,10
2017-07-12T12:04:25.620Z,10
2017-07-12T12:05:25.090Z,10
2017-07-12T12:06:25.549Z,10
2017-07-12T12:07:25.919Z,10
2017-07-12T12:08:25.195Z,10
2017-07-12T12:09:25.525Z,10
2017-07-12T12:10:26.217Z,10
2017-07-12T12:11:26.251Z,10
2017-07-12T12:12:25.939Z,10
2017-07-12T12:13:25.527Z,10
2017-07-12T12:14:25.557Z,10
2017-07-12T12:15:25.582Z,10
2017-07-12T12:16:25.282Z,10
2017-07-12T12:17:25.461Z,10
2017-07-12T12:18:26.076Z,15
2017-07-12T12:19:25.032Z,15
2017-07-12T12:20:25.728Z,15
2017-07-12T12:21:25.405Z,15
2017-07-12T12:22:25.101Z,10
2017-07-12T12:23:25.455Z,10
2017-07-12T12:24:26.461Z,15
2017-07-12T12:25:26.582Z,20
2017-07-12T12:26:26.283Z,25
2017-07-12T12:27:26.533Z,25
2017-07-12T12:28:25.913Z,25
2017-07-12T12:29:26.388Z,25
2017-07-12T12:30:26.604Z,20
2017-07-12T12:31:26.008Z,20
2017-07-12T12:32:26.364Z,15
2017-07-12T12:33:26.359Z,10
2017-07-12T12:34:26.061Z,15
2017-07-12T12:35:25.773Z,15
2017-07-12T12:36:26.086Z,15
2017-07-12T12:37:26.477Z,15
2017-07-12T12:38:26.335Z,20
2017-07-12T12:39:26.195Z,20
2017-07-12T12:40:26.332Z,15
2017-07-12T12:41:26.646Z,15
2017-07-12T12:42:26.596Z,10
2017-07-12T12:43:27.027Z,15
2017-07-12T12:44:25.792Z,10
2017-07-12T12:45:26.835Z,10
2017-07-12T12:46:26.039Z,10
2017-07-12T12:47:26.066Z,5
2017-07-12T12:48:26.609Z,10
2017-07-12T12:49:26.442Z,10
2017-07-12T12:50:26.908Z,15
2017-07-12T12:51:27.136Z,10
2017-07-12T12:52:26.909Z,15
2017-07-12T12:53:26.859Z,10
2017-07-12T12:54:27.397Z,15
2017-07-12T12:55:26.691Z,5
2017-07-12T12:56:27.016Z,5
2017-07-12T12:57:27.404Z,10
2017-07-12T12:58:26.462Z,10
2017-07-12T12:59:26.933Z,10
2017-07-12T13:00:27.045Z,10
2017-07-12T13:01:27.076Z,10
2017-07-12T13:02:26.767Z,10
2017-07-12T13:03:26.881Z,10
2017-07-12T13:04:27.465Z,10
2017-07-12T13:05:26.596Z,10
2017-07-12T13:06:26.552Z,5
2017-07-12T13:07:26.961Z,5
2017-07-12T13:08:26.991Z,5
2017-07-12T13:09:27.272Z,5
2017-07-12T13:10:27.624Z,5
2017-07-12T13:11:27.502Z,5
2017-07-12T13:12:27.713Z,5
2017-07-12T13:13:27.375Z,5
2017-07-12T13:14:27.145Z,5
2017-07-12T13:15:27.172Z,5
2017-07-12T13:16:27.593Z,10
2017-07-12T13:17:27.529Z,10
2017-07-12T13:18:27.817Z,15
2017-07-12T13:19:27.530Z,15
2017-07-12T13:20:27.354Z,15
2017-07-12T13:21:27.237Z,20
2017-07-12T13:22:27.025Z,25
2017-07-12T13:23:27.294Z,30
2017-07-12T13:24:27.742Z,25
2017-07-12T13:25:27.352Z,20
2017-07-12T13:26:27.536Z,20
2017-07-12T13:27:27.809Z,20
2017-07-12T13:28:27.881Z,25
2017-07-12T13:29:27.450Z,30
2017-07-12T13:30:27.798Z,35
2017-07-12T13:31:27.980Z,35
2017-07-12T13:32:27.191Z,40
2017-07-12T13:33:28.207Z,40
2017-07-12T13:34:27.359Z,40
2017-07-12T13:35:27.976Z,35
2017-07-12T13:36:27.614Z,35
2017-07-12T13:37:27.326Z,40
2017-07-12T13:38:28.186Z,50
2017-07-12T13:39:28.031Z,55
2017-07-12T13:40:28.515Z,60
2017-07-12T13:41:28.086Z,65
2017-07-12T13:42:28.111Z,65
2017-07-12T13:43:28.120Z,55
2017-07-12T13:44:28.150Z,40
2017-07-12T13:45:27.519Z,35
2017-07-12T13:46:28.316Z,35
2017-07-12T13:47:27.896Z,30
2017-07-12T13:48:28.157Z,20
2017-07-12T13:49:28.269Z,20
2017-07-12T13:50:27.656Z,25
2017-07-12T13:51:28.136Z,25
2017-07-12T13:52:28.567Z,20
2017-07-12T13:53:28.802Z,25
2017-07-12T13:54:28.197Z,20
2017-07-12T13:55:28.224Z,30
2017-07-12T13:56:28.557Z,35
2017-07-12T13:57:27.828Z,45
2017-07-12T13:58:28.827Z,55
2017-07-12T13:59:27.989Z,50
2017-07-12T14:00:28.360Z,65
2017-07-12T14:01:28.332Z,70
2017-07-12T14:02:27.960Z,60
2017-07-12T14:03:29.065Z,55
2017-07-12T14:04:28.335Z,55
2017-07-12T14:05:28.675Z,45
2017-07-12T14:06:28.507Z,30
2017-07-12T14:07:28.735Z,30
2017-07-12T14:08:28.482Z,30
2017-07-12T14:09:28.781Z,25
2017-07-12T14:10:28.476Z,20
2017-07-12T14:11:28.512Z,15
2017-07-12T14:12:28.985Z,15
2017-07-12T14:13:28.874Z,25
2017-07-12T14:14:28.766Z,35
2017-07-12T14:15:28.723Z,20
2017-07-12T14:16:29.359Z,25
2017-07-12T14:17:28.654Z,20
2017-07-12T14:18:28.697Z,15
2017-07-12T14:19:28.710Z,25
2017-07-12T14:20:28.727Z,15
2017-07-12T14:21:28.755Z,15
2017-07-12T14:22:28.791Z,10
2017-07-12T14:23:29.243Z,15
2017-07-12T14:24:29.158Z,15
2017-07-12T14:25:28.858Z,5
2017-07-12T14:26:28.567Z,10
2017-07-12T14:27:29.688Z,15
2017-07-12T14:28:29.384Z,10
2017-07-12T14:29:29.297Z,10
2017-07-12T14:30:28.987Z,5
2017-07-12T14:31:29.544Z,5
2017-07-12T14:32:29.163Z,10
2017-07-12T14:33:28.739Z,5
2017-07-12T14:34:29.734Z,5
2017-07-12T14:35:29.236Z,5